Time;durP1;ratioP1;P1;durP2;ratioP2;P2;SDS_P1;SDS_P2;PMS_P1;PMS_P2;Temp;Humidity;BMP_temperature;BMP_pressure;BME280_temperature;BME280_humidity;BME280_pressure;Samples;Min_cycle;Max_cycle;Signal;HPM_P1;HPM_P2
2023/09/07 00:00:47;;;;;;;3.63;1.77;;;;;;;;;;6216151;23;20024;-88
2023/09/07 00:03:14;;;;;;;2.47;1.77;;;;;;;;;;6214454;23;20016;-88
2023/09/07 00:05:40;;;;;;;2.70;1.80;;;;;;;;;;6242526;23;20012;-87
2023/09/07 00:08:06;;;;;;;1.85;1.75;;;;;;;;;;6242450;23;20012;-88
2023/09/07 00:10:35;;;;;;;2.67;1.85;;;;;;;;;;6215314;23;20095;-89
2023/09/07 00:13:02;;;;;;;2.80;1.50;;;;;;;;;;6215412;23;20013;-87
2023/09/07 00:15:28;;;;;;;2.42;1.70;;;;;;;;;;6214570;23;20511;-90
2023/09/07 00:17:54;;;;;;;2.42;1.60;;;;;;;;;;6242058;23;20083;-89
2023/09/07 00:20:21;;;;;;;3.03;1.88;;;;;;;;;;6242259;23;20051;-89
2023/09/07 00:22:47;;;;;;;2.67;1.90;;;;;;;;;;6215921;23;20012;-92
2023/09/07 00:25:13;;;;;;;3.10;2.15;;;;;;;;;;6214536;23;20321;-90
2023/09/07 00:27:40;;;;;;;1.88;1.42;;;;;;;;;;6242269;23;20101;-90
2023/09/07 00:30:08;;;;;;;2.80;1.90;;;;;;;;;;6214671;23;20019;-89
2023/09/07 00:32:36;;;;;;;2.55;1.77;;;;;;;;;;6242907;23;20361;-89
2023/09/07 00:35:02;;;;;;;2.42;1.73;;;;;;;;;;6242196;23;20051;-89
2023/09/07 00:37:28;;;;;;;2.42;2.22;;;;;;;;;;6242530;23;20183;-89
2023/09/07 00:39:54;;;;;;;2.60;1.85;;;;;;;;;;6242018;23;20112;-89
2023/09/07 00:42:20;;;;;;;2.20;1.52;;;;;;;;;;6214884;23;20051;-90
2023/09/07 00:44:47;;;;;;;2.90;1.88;;;;;;;;;;6242247;23;20009;-89
2023/09/07 00:47:14;;;;;;;1.88;1.50;;;;;;;;;;6242070;23;20012;-90
2023/09/07 00:49:40;;;;;;;1.92;1.60;;;;;;;;;;6242911;23;20016;-89
2023/09/07 00:52:06;;;;;;;2.58;1.98;;;;;;;;;;6242036;23;20337;-88
2023/09/07 00:54:34;;;;;;;2.15;1.77;;;;;;;;;;6241977;23;20704;-89
2023/09/07 00:57:00;;;;;;;2.55;1.85;;;;;;;;;;6240561;23;20019;-89
2023/09/07 00:59:26;;;;;;;2.10;1.58;;;;;;;;;;6215014;23;20354;-89
2023/09/07 01:01:52;;;;;;;2.15;1.83;;;;;;;;;;6242052;23;20020;-90
2023/09/07 01:04:18;;;;;;;2.67;2.08;;;;;;;;;;6214576;23;20042;-91
2023/09/07 01:06:58;;;;;;;2.97;1.58;;;;;;;;;;6242593;23;20012;-91
2023/09/07 01:09:26;;;;;;;2.47;1.42;;;;;;;;;;6242183;23;20066;-90
2023/09/07 01:11:53;;;;;;;2.33;1.90;;;;;;;;;;6214854;23;20091;-91
2023/09/07 01:14:19;;;;;;;2.10;1.60;;;;;;;;;;6213986;23;20042;-92
2023/09/07 01:16:45;;;;;;;2.90;2.10;;;;;;;;;;6241895;23;20062;-92
2023/09/07 01:19:11;;;;;;;2.70;2.03;;;;;;;;;;6241050;23;20016;-91
2023/09/07 01:21:38;;;;;;;2.65;1.90;;;;;;;;;;6241998;23;20012;-91
2023/09/07 01:24:06;;;;;;;4.15;1.92;;;;;;;;;;6241415;23;20004;-89
2023/09/07 01:26:32;;;;;;;2.78;1.92;;;;;;;;;;6241801;23;20012;-90
2023/09/07 01:28:58;;;;;;;3.15;2.25;;;;;;;;;;6240979;23;20027;-91
2023/09/07 01:31:24;;;;;;;2.20;1.98;;;;;;;;;;6241299;23;20012;-92
2023/09/07 01:33:51;;;;;;;3.38;2.25;;;;;;;;;;6241413;23;20012;-90
2023/09/07 01:36:17;;;;;;;2.50;1.95;;;;;;;;;;6240949;23;20087;-92
2023/09/07 01:38:43;;;;;;;2.95;2.00;;;;;;;;;;6214764;23;20066;-90
2023/09/07 01:41:09;;;;;;;2.17;1.92;;;;;;;;;;6240604;23;20012;-90
2023/09/07 01:43:35;;;;;;;3.50;2.33;;;;;;;;;;6215018;23;20016;-90
2023/09/07 01:46:01;;;;;;;2.30;2.08;;;;;;;;;;6213946;23;20450;-90
2023/09/07 01:48:27;;;;;;;2.67;2.28;;;;;;;;;;6214661;23;20146;-89
2023/09/07 01:50:54;;;;;;;2.42;2.17;;;;;;;;;;6246406;23;20488;-89
2023/09/07 01:53:20;;;;;;;2.35;1.80;;;;;;;;;;6247385;23;20023;-90
2023/09/07 01:55:47;;;;;;;3.25;1.95;;;;;;;;;;6241194;23;20057;-89
2023/09/07 01:58:13;;;;;;;2.28;1.90;;;;;;;;;;6241154;23;20377;-91
2023/09/07 02:00:40;;;;;;;4.53;1.92;;;;;;;;;;6242284;23;20376;-90
2023/09/07 02:03:06;;;;;;;2.80;2.17;;;;;;;;;;6214232;23;20008;-89
2023/09/07 02:05:32;;;;;;;2.17;2.03;;;;;;;;;;6240594;23;20066;-89
2023/09/07 02:07:59;;;;;;;4.28;2.03;;;;;;;;;;6240612;23;20095;-90
2023/09/07 02:10:25;;;;;;;3.60;2.13;;;;;;;;;;6240823;23;20012;-91
2023/09/07 02:12:51;;;;;;;4.28;2.08;;;;;;;;;;6240976;23;20012;-92
2023/09/07 02:15:17;;;;;;;4.28;2.10;;;;;;;;;;6240838;23;20023;-91
2023/09/07 02:17:44;;;;;;;4.07;1.90;;;;;;;;;;6241477;23;20425;-90
2023/09/07 02:20:11;;;;;;;2.83;2.40;;;;;;;;;;6213277;23;20044;-89
2023/09/07 02:22:37;;;;;;;2.88;1.95;;;;;;;;;;6214658;23;20012;-89
2023/09/07 02:25:05;;;;;;;3.38;2.65;;;;;;;;;;6240911;23;20020;-89
2023/09/07 02:27:31;;;;;;;2.83;2.15;;;;;;;;;;6213820;23;20019;-90
2023/09/07 02:29:57;;;;;;;2.55;2.35;;;;;;;;;;6240780;23;20008;-88
2023/09/07 02:32:23;;;;;;;3.95;2.67;;;;;;;;;;6213405;23;20337;-88
2023/09/07 02:34:49;;;;;;;2.83;2.33;;;;;;;;;;6240378;23;20023;-89
2023/09/07 02:37:16;;;;;;;4.93;2.22;;;;;;;;;;6240173;23;20453;-89
2023/09/07 02:39:42;;;;;;;2.60;2.40;;;;;;;;;;6241652;23;20066;-89
2023/09/07 02:42:08;;;;;;;2.65;2.40;;;;;;;;;;6240115;23;20035;-89
2023/09/07 02:44:35;;;;;;;3.40;2.95;;;;;;;;;;6241468;23;20329;-88
2023/09/07 02:47:01;;;;;;;3.45;2.47;;;;;;;;;;6213202;23;20025;-89
2023/09/07 02:49:27;;;;;;;3.53;2.78;;;;;;;;;;6188908;23;20012;-89
2023/09/07 02:51:53;;;;;;;3.33;2.42;;;;;;;;;;6241441;23;20083;-89
2023/09/07 02:54:19;;;;;;;2.60;2.40;;;;;;;;;;6241134;23;20120;-88
2023/09/07 02:56:45;;;;;;;3.17;2.47;;;;;;;;;;6240632;23;20099;-88
2023/09/07 02:59:11;;;;;;;3.38;2.53;;;;;;;;;;6239567;23;20044;-88
2023/09/07 03:01:39;;;;;;;2.78;2.42;;;;;;;;;;6240524;23;20367;-89
2023/09/07 03:04:05;;;;;;;3.38;2.42;;;;;;;;;;6239963;23;20016;-90
2023/09/07 03:06:31;;;;;;;2.78;2.58;;;;;;;;;;6240904;23;20329;-89
2023/09/07 03:08:57;;;;;;;3.28;2.35;;;;;;;;;;6240139;23;20016;-89
2023/09/07 03:11:23;;;;;;;2.63;2.42;;;;;;;;;;6240512;23;20031;-90
2023/09/07 03:13:50;;;;;;;2.53;2.28;;;;;;;;;;6241232;23;20345;-90
2023/09/07 03:16:16;;;;;;;4.45;2.83;;;;;;;;;;6240475;23;20012;-89
2023/09/07 03:18:42;;;;;;;3.28;2.22;;;;;;;;;;6213809;23;20044;-90
2023/09/07 03:21:08;;;;;;;2.90;2.35;;;;;;;;;;6240980;23;20066;-89
2023/09/07 03:23:34;;;;;;;3.30;2.38;;;;;;;;;;6241203;23;20372;-90
2023/09/07 03:26:00;;;;;;;3.58;3.00;;;;;;;;;;6240448;23;20433;-88
2023/09/07 03:28:26;;;;;;;3.25;2.67;;;;;;;;;;6240373;23;20016;-88
2023/09/07 03:30:54;;;;;;;2.75;2.50;;;;;;;;;;6241303;23;20013;-89
2023/09/07 03:33:20;;;;;;;4.35;2.33;;;;;;;;;;6241756;23;20091;-87
2023/09/07 03:35:47;;;;;;;3.10;2.45;;;;;;;;;;6215285;23;20023;-89
2023/09/07 03:38:13;;;;;;;4.03;2.60;;;;;;;;;;6241498;23;20306;-89
2023/09/07 03:40:39;;;;;;;4.72;2.45;;;;;;;;;;6215882;23;20024;-89
2023/09/07 03:43:05;;;;;;;2.83;2.47;;;;;;;;;;6242798;23;20019;-88
2023/09/07 03:45:32;;;;;;;4.00;2.58;;;;;;;;;;6242767;23;20027;-90
2023/09/07 03:47:58;;;;;;;3.22;2.92;;;;;;;;;;6241295;23;20086;-89
2023/09/07 03:50:24;;;;;;;3.72;2.80;;;;;;;;;;6241865;23;20016;-90
2023/09/07 03:52:50;;;;;;;3.85;2.95;;;;;;;;;;6245469;23;20016;-89
2023/09/07 03:55:16;;;;;;;4.90;2.85;;;;;;;;;;6222124;23;20024;-90
2023/09/07 03:57:42;;;;;;;4.10;2.72;;;;;;;;;;6216312;23;20019;-91
2023/09/07 04:00:08;;;;;;;3.60;3.30;;;;;;;;;;6242025;23;20099;-89
2023/09/07 04:02:34;;;;;;;3.00;2.53;;;;;;;;;;6215062;23;20019;-90
2023/09/07 04:05:05;;;;;;;4.95;2.95;;;;;;;;;;6189771;23;20139;-91
2023/09/07 04:07:31;;;;;;;;;;;;;;;;;;6216250;23;20044;-89
2023/09/07 04:09:57;;;;;;;3.08;2.17;;;;;;;;;;6214928;23;19919;-91
2023/09/07 04:12:23;;;;;;;3.60;2.78;;;;;;;;;;6242630;23;20061;-89
2023/09/07 04:14:49;;;;;;;4.13;2.83;;;;;;;;;;6242198;23;20097;-89
2023/09/07 04:17:15;;;;;;;6.00;3.10;;;;;;;;;;6241369;23;20020;-89
2023/09/07 04:19:41;;;;;;;3.80;2.92;;;;;;;;;;6190962;23;20023;-88
2023/09/07 04:22:07;;;;;;;3.05;2.63;;;;;;;;;;6214680;23;20030;-88
2023/09/07 04:24:33;;;;;;;3.30;2.58;;;;;;;;;;6215943;23;20048;-89
2023/09/07 04:27:03;;;;;;;4.68;3.35;;;;;;;;;;6215021;23;20064;-91
2023/09/07 04:29:29;;;;;;;4.10;2.90;;;;;;;;;;6215495;23;20528;-88
2023/09/07 04:31:55;;;;;;;3.92;3.08;;;;;;;;;;6241396;23;20070;-88
2023/09/07 04:34:22;;;;;;;4.35;2.58;;;;;;;;;;6214875;23;20027;-88
2023/09/07 04:36:48;;;;;;;3.33;2.75;;;;;;;;;;6242564;23;20372;-91
2023/09/07 04:39:14;;;;;;;4.15;2.88;;;;;;;;;;6241196;23;20030;-88
2023/09/07 04:41:40;;;;;;;4.03;3.38;;;;;;;;;;6242892;23;20012;-89
2023/09/07 04:44:06;;;;;;;6.55;3.15;;;;;;;;;;6214827;23;20055;-89
2023/09/07 04:46:32;;;;;;;4.00;3.30;;;;;;;;;;6214639;23;20008;-90
2023/09/07 04:48:58;;;;;;;8.90;3.33;;;;;;;;;;6241909;23;20079;-89
2023/09/07 04:51:25;;;;;;;4.05;3.33;;;;;;;;;;6215008;23;20519;-89
2023/09/07 04:53:51;;;;;;;4.07;3.33;;;;;;;;;;6215102;23;20016;-89
2023/09/07 04:56:17;;;;;;;3.72;2.95;;;;;;;;;;6241579;23;20023;-88
2023/09/07 04:58:44;;;;;;;4.75;3.38;;;;;;;;;;6215558;23;20070;-88
2023/09/07 05:01:12;;;;;;;4.15;3.33;;;;;;;;;;6240431;23;20028;-89
2023/09/07 05:03:40;;;;;;;5.28;3.10;;;;;;;;;;6242546;23;20012;-90
2023/09/07 05:06:07;;;;;;;4.05;3.22;;;;;;;;;;6241179;23;20020;-89
2023/09/07 05:08:33;;;;;;;3.05;2.50;;;;;;;;;;6241688;23;20047;-91
2023/09/07 05:11:00;;;;;;;4.25;3.40;;;;;;;;;;6213842;23;20012;-88
2023/09/07 05:13:27;;;;;;;4.95;3.25;;;;;;;;;;6240395;23;20070;-88
2023/09/07 05:15:54;;;;;;;3.92;3.03;;;;;;;;;;6239811;23;20012;-88
2023/09/07 05:18:20;;;;;;;4.47;3.58;;;;;;;;;;6241816;23;20016;-93
2023/09/07 05:20:48;;;;;;;4.07;3.10;;;;;;;;;;6216072;23;20012;-94
2023/09/07 05:23:15;;;;;;;3.58;3.03;;;;;;;;;;6215250;23;20354;-90
2023/09/07 05:25:48;;;;;;;4.82;3.83;;;;;;;;;;6242321;23;20020;-91
2023/09/07 05:28:15;;;;;;;4.65;3.72;;;;;;;;;;6241960;23;20040;-91
2023/09/07 05:30:41;;;;;;;3.72;3.33;;;;;;;;;;6242543;23;20012;-90
2023/09/07 05:33:08;;;;;;;4.32;3.65;;;;;;;;;;6243378;23;20012;-94
2023/09/07 05:35:34;;;;;;;5.53;3.38;;;;;;;;;;6216072;23;20020;-91
2023/09/07 05:38:00;;;;;;;4.75;3.33;;;;;;;;;;6216209;23;20437;-92
2023/09/07 05:40:26;;;;;;;3.92;3.22;;;;;;;;;;6214586;23;20023;-89
2023/09/07 05:42:55;;;;;;;3.95;3.47;;;;;;;;;;6215039;23;20020;-92
2023/09/07 05:45:21;;;;;;;4.05;3.38;;;;;;;;;;6215434;23;20016;-91
2023/09/07 05:47:47;;;;;;;4.70;3.30;;;;;;;;;;6214673;23;20012;-89
2023/09/07 05:50:13;;;;;;;4.20;3.17;;;;;;;;;;6213230;23;20050;-89
2023/09/07 05:52:39;;;;;;;4.30;3.75;;;;;;;;;;6216071;23;20051;-93
2023/09/07 05:55:06;;;;;;;4.10;3.13;;;;;;;;;;6248838;23;20049;-91
2023/09/07 05:57:32;;;;;;;9.73;4.45;;;;;;;;;;6223302;23;20020;-89
2023/09/07 05:59:58;;;;;;;4.00;3.60;;;;;;;;;;6242514;23;20043;-91
2023/09/07 06:02:24;;;;;;;5.47;3.40;;;;;;;;;;6244440;23;20008;-91
2023/09/07 06:04:50;;;;;;;4.50;3.55;;;;;;;;;;6243656;23;20450;-92
2023/09/07 06:07:16;;;;;;;4.38;3.42;;;;;;;;;;6242198;23;20012;-94
2023/09/07 06:09:42;;;;;;;4.85;3.83;;;;;;;;;;6243997;23;20457;-92
2023/09/07 06:12:08;;;;;;;4.47;3.13;;;;;;;;;;6241267;23;20012;-91
2023/09/07 06:14:34;;;;;;;3.72;3.30;;;;;;;;;;6190733;23;20020;-90
2023/09/07 06:17:00;;;;;;;5.18;3.80;;;;;;;;;;6215072;23;20023;-90
2023/09/07 06:19:26;;;;;;;6.53;3.53;;;;;;;;;;6241486;23;20004;-89
2023/09/07 06:21:52;;;;;;;3.95;3.55;;;;;;;;;;6241927;23;20442;-87
2023/09/07 06:24:18;;;;;;;5.65;3.72;;;;;;;;;;6212217;23;20020;-86
2023/09/07 06:26:44;;;;;;;4.03;3.53;;;;;;;;;;6240124;23;20008;-91
2023/09/07 06:29:10;;;;;;;4.00;3.17;;;;;;;;;;6214378;23;20323;-87
2023/09/07 06:31:36;;;;;;;6.03;3.42;;;;;;;;;;6214938;23;20012;-88
2023/09/07 06:34:02;;;;;;;5.80;3.58;;;;;;;;;;6212324;23;20016;-90
2023/09/07 06:36:30;;;;;;;4.50;3.60;;;;;;;;;;6211902;23;20016;-90
2023/09/07 06:38:56;;;;;;;6.90;3.78;;;;;;;;;;6213083;23;20138;-89
2023/09/07 06:41:22;;;;;;;4.85;3.78;;;;;;;;;;6213022;23;20062;-88
2023/09/07 06:43:48;;;;;;;4.57;3.58;;;;;;;;;;6213732;23;20008;-88
2023/09/07 06:46:14;;;;;;;3.92;3.53;;;;;;;;;;6213087;23;20027;-90
2023/09/07 06:48:40;;;;;;;5.13;3.63;;;;;;;;;;6240174;23;20510;-90
2023/09/07 06:51:08;;;;;;;6.28;3.72;;;;;;;;;;6212257;23;20016;-91
2023/09/07 06:53:34;;;;;;;6.18;3.83;;;;;;;;;;6239667;23;20016;-92
2023/09/07 06:56:03;;;;;;;3.75;3.30;;;;;;;;;;6239904;22;20376;-89
2023/09/07 06:58:32;;;;;;;3.25;2.95;;;;;;;;;;6240524;23;20031;-87
2023/09/07 07:00:58;;;;;;;5.43;3.55;;;;;;;;;;6187512;23;20027;-86
2023/09/07 07:03:28;;;;;;;4.63;3.80;;;;;;;;;;6212953;23;20055;-86
2023/09/07 07:05:55;;;;;;;4.82;3.42;;;;;;;;;;6240944;23;20054;-85
2023/09/07 07:08:21;;;;;;;4.43;3.30;;;;;;;;;;6241883;23;20019;-83
2023/09/07 07:10:47;;;;;;;3.45;3.05;;;;;;;;;;6243183;23;20012;-83
2023/09/07 07:13:13;;;;;;;5.10;2.80;;;;;;;;;;6214277;23;20066;-84
2023/09/07 07:15:39;;;;;;;5.93;3.63;;;;;;;;;;6242591;23;20016;-82
2023/09/07 07:18:08;;;;;;;5.53;3.67;;;;;;;;;;6241971;23;20016;-85
2023/09/07 07:20:38;;;;;;;5.35;3.10;;;;;;;;;;6242833;23;20246;-83
2023/09/07 07:23:06;;;;;;;3.42;3.03;;;;;;;;;;6242707;23;20027;-83
2023/09/07 07:25:33;;;;;;;4.30;3.28;;;;;;;;;;6241765;23;20334;-86
2023/09/07 07:27:59;;;;;;;5.20;3.38;;;;;;;;;;6241996;23;20012;-84
2023/09/07 07:30:31;;;;;;;3.53;2.70;;;;;;;;;;6215661;23;20012;-84
2023/09/07 07:32:57;;;;;;;3.42;3.00;;;;;;;;;;6242880;23;20015;-85
2023/09/07 07:35:23;;;;;;;4.32;3.03;;;;;;;;;;6215839;23;20016;-85
2023/09/07 07:37:50;;;;;;;5.22;3.03;;;;;;;;;;6243151;23;20012;-85
2023/09/07 07:40:20;;;;;;;4.07;3.17;;;;;;;;;;6214799;23;20016;-86
2023/09/07 07:42:46;;;;;;;5.25;3.03;;;;;;;;;;6216239;23;20388;-82
2023/09/07 07:45:12;;;;;;;9.68;3.55;;;;;;;;;;6238705;23;20019;-82
2023/09/07 07:47:38;;;;;;;2.95;2.63;;;;;;;;;;6242140;23;20015;-83
2023/09/07 07:50:05;;;;;;;4.30;3.03;;;;;;;;;;6240656;23;20016;-84
2023/09/07 07:52:31;;;;;;;3.35;2.58;;;;;;;;;;6240754;23;20015;-83
2023/09/07 07:54:57;;;;;;;3.97;2.90;;;;;;;;;;6241205;23;20091;-83
2023/09/07 07:57:23;;;;;;;5.63;2.97;;;;;;;;;;6214274;23;20035;-83
2023/09/07 07:59:49;;;;;;;3.25;2.78;;;;;;;;;;6240514;23;20055;-84
2023/09/07 08:02:15;;;;;;;3.05;2.67;;;;;;;;;;6242325;23;20069;-86
2023/09/07 08:04:41;;;;;;;3.85;2.97;;;;;;;;;;6242641;23;20379;-84
2023/09/07 08:07:08;;;;;;;3.80;3.00;;;;;;;;;;6241081;23;20020;-83
2023/09/07 08:09:34;;;;;;;3.13;2.83;;;;;;;;;;6242473;23;20083;-87
2023/09/07 08:12:03;;;;;;;3.55;2.97;;;;;;;;;;6214701;23;20012;-84
2023/09/07 08:14:30;;;;;;;4.47;3.17;;;;;;;;;;6214467;23;20024;-83
2023/09/07 08:16:57;;;;;;;3.28;2.50;;;;;;;;;;6240731;23;20012;-83
2023/09/07 08:19:22;;;;;;;3.50;2.95;;;;;;;;;;6240217;23;20099;-84
2023/09/07 08:21:49;;;;;;;3.70;3.00;;;;;;;;;;6215732;23;20414;-83
2023/09/07 08:24:15;;;;;;;3.53;2.65;;;;;;;;;;6242005;23;20016;-84
2023/09/07 08:26:41;;;;;;;3.70;2.70;;;;;;;;;;6242898;23;20047;-88
2023/09/07 08:29:08;;;;;;;4.07;2.75;;;;;;;;;;6241839;23;20140;-85
2023/09/07 08:31:38;;;;;;;3.30;3.00;;;;;;;;;;6242653;23;20376;-88
2023/09/07 08:34:11;;;;;;;2.85;2.38;;;;;;;;;;6214537;23;20066;-85
2023/09/07 08:36:37;;;;;;;4.72;2.65;;;;;;;;;;6214673;23;20019;-85
2023/09/07 08:39:10;;;;;;;4.30;2.83;;;;;;;;;;6241476;23;20011;-86
2023/09/07 08:41:46;;;;;;;5.13;2.40;;;;;;;;;;6215670;23;20373;-86
2023/09/07 08:44:15;;;;;;;4.25;2.65;;;;;;;;;;6238316;23;20087;-85
2023/09/07 08:46:41;;;;;;;4.63;3.15;;;;;;;;;;6242589;23;20026;-89
2023/09/07 08:49:09;;;;;;;3.58;2.72;;;;;;;;;;6241203;23;20047;-84
2023/09/07 08:51:37;;;;;;;4.45;2.92;;;;;;;;;;6241887;23;20012;-85
2023/09/07 08:54:03;;;;;;;5.05;3.33;;;;;;;;;;6241202;23;20012;-83
2023/09/07 08:56:29;;;;;;;4.10;2.67;;;;;;;;;;6241887;23;20445;-89
2023/09/07 08:58:55;;;;;;;3.30;2.80;;;;;;;;;;6241754;23;20143;-84
2023/09/07 09:01:21;;;;;;;4.15;2.95;;;;;;;;;;6240083;23;20035;-83
2023/09/07 09:03:48;;;;;;;4.20;2.92;;;;;;;;;;6241380;23;20016;-84
2023/09/07 09:06:15;;;;;;;3.45;3.15;;;;;;;;;;6240989;23;20024;-83
2023/09/07 09:08:52;;;;;;;3.00;2.70;;;;;;;;;;6242300;23;20008;-85
2023/09/07 09:11:18;;;;;;;2.78;2.40;;;;;;;;;;6241127;23;20012;-83
2023/09/07 09:13:45;;;;;;;2.90;2.50;;;;;;;;;;6241177;23;20091;-83
2023/09/07 09:16:12;;;;;;;4.20;2.67;;;;;;;;;;6239751;23;20019;-85
2023/09/07 09:18:39;;;;;;;3.08;2.58;;;;;;;;;;6242477;23;20016;-84
2023/09/07 09:21:05;;;;;;;2.80;2.50;;;;;;;;;;6240607;23;20389;-82
2023/09/07 09:23:35;;;;;;;5.03;2.78;;;;;;;;;;6241903;23;20063;-84
2023/09/07 09:26:05;;;;;;;4.25;2.88;;;;;;;;;;6240727;23;20012;-86
2023/09/07 09:28:31;;;;;;;3.65;3.00;;;;;;;;;;6240724;23;20012;-83
2023/09/07 09:30:58;;;;;;;2.90;2.45;;;;;;;;;;6211673;23;20023;-85
2023/09/07 09:33:25;;;;;;;4.10;2.85;;;;;;;;;;6240075;23;20008;-85
2023/09/07 09:35:52;;;;;;;3.28;2.83;;;;;;;;;;6212927;23;20043;-88
2023/09/07 09:38:18;;;;;;;3.08;2.67;;;;;;;;;;6240756;23;20096;-88
2023/09/07 09:40:44;;;;;;;4.72;2.97;;;;;;;;;;6211915;23;20047;-87
2023/09/07 09:43:10;;;;;;;6.05;3.25;;;;;;;;;;6240249;23;20012;-87
2023/09/07 09:45:36;;;;;;;3.20;2.78;;;;;;;;;;6241281;23;20023;-88
2023/09/07 09:48:03;;;;;;;3.55;2.97;;;;;;;;;;6214022;23;20016;-86
2023/09/07 09:50:29;;;;;;;3.20;2.78;;;;;;;;;;6213400;23;20054;-85
2023/09/07 09:52:55;;;;;;;3.95;2.83;;;;;;;;;;6214312;23;20016;-88
2023/09/07 09:55:22;;;;;;;2.60;2.40;;;;;;;;;;6240252;23;20048;-86
2023/09/07 09:57:49;;;;;;;8.80;3.03;;;;;;;;;;6245157;23;20070;-87
2023/09/07 10:02:50;;;;;;;3.13;2.65;;;;;;;;;;6241128;23;20694;-89
2023/09/07 10:05:16;;;;;;;5.60;2.85;;;;;;;;;;6239295;23;20016;-86
2023/09/07 10:07:43;;;;;;;4.50;3.00;;;;;;;;;;6242209;23;20016;-88
2023/09/07 10:10:15;;;;;;;3.55;2.95;;;;;;;;;;6238774;23;20024;-86
2023/09/07 10:12:42;;;;;;;3.13;2.65;;;;;;;;;;6241417;23;20043;-86
2023/09/07 10:15:20;;;;;;;5.38;2.60;;;;;;;;;;6211733;23;20488;-86
2023/09/07 10:17:49;;;;;;;4.35;2.63;;;;;;;;;;6213358;23;20016;-89
2023/09/07 10:20:15;;;;;;;5.50;2.63;;;;;;;;;;6211954;23;20069;-85
2023/09/07 10:22:41;;;;;;;2.85;2.55;;;;;;;;;;6214139;23;20039;-86
2023/09/07 10:25:18;;;;;;;4.25;2.53;;;;;;;;;;6239308;23;20020;-85
2023/09/07 10:27:44;;;;;;;3.85;2.83;;;;;;;;;;6214020;23;20012;-82
2023/09/07 10:30:12;;;;;;;3.25;2.92;;;;;;;;;;6240161;23;20012;-82
2023/09/07 10:32:40;;;;;;;2.97;2.67;;;;;;;;;;6240994;23;20014;-84
2023/09/07 10:35:16;;;;;;;5.18;2.90;;;;;;;;;;6240082;23;20012;-84
2023/09/07 10:37:45;;;;;;;4.60;2.70;;;;;;;;;;6214076;23;20023;-87
2023/09/07 10:40:11;;;;;;;3.10;2.60;;;;;;;;;;6213304;23;20074;-85
2023/09/07 10:42:38;;;;;;;3.33;2.50;;;;;;;;;;6240964;23;20012;-84
2023/09/07 10:45:11;;;;;;;3.47;2.70;;;;;;;;;;6239417;23;20070;-83
2023/09/07 10:47:40;;;;;;;4.20;2.83;;;;;;;;;;6214485;23;20024;-84
2023/09/07 10:50:07;;;;;;;3.35;3.05;;;;;;;;;;6239353;23;20012;-83
2023/09/07 10:52:34;;;;;;;2.90;2.58;;;;;;;;;;6214905;23;20012;-84
2023/09/07 10:55:00;;;;;;;4.85;3.08;;;;;;;;;;6240543;23;20016;-86
2023/09/07 10:57:26;;;;;;;4.32;2.92;;;;;;;;;;6241075;23;20020;-83
2023/09/07 10:59:55;;;;;;;3.30;3.00;;;;;;;;;;6213014;23;20020;-85
2023/09/07 11:02:21;;;;;;;3.13;2.83;;;;;;;;;;6240443;23;20083;-89
2023/09/07 11:04:47;;;;;;;4.10;3.22;;;;;;;;;;6240885;23;20013;-83
2023/09/07 11:07:13;;;;;;;3.50;3.17;;;;;;;;;;6213417;23;20018;-84
2023/09/07 11:09:43;;;;;;;3.85;2.97;;;;;;;;;;6213980;23;20019;-83
2023/09/07 11:12:09;;;;;;;4.28;3.03;;;;;;;;;;6240440;23;20102;-84
2023/09/07 11:14:35;;;;;;;5.93;3.40;;;;;;;;;;6241042;23;20055;-88
2023/09/07 11:17:03;;;;;;;3.00;2.70;;;;;;;;;;6213508;23;20012;-86
2023/09/07 11:19:32;;;;;;;6.32;3.15;;;;;;;;;;6240615;23;20024;-85
2023/09/07 11:21:58;;;;;;;3.33;2.72;;;;;;;;;;6240771;23;20319;-89
2023/09/07 11:24:25;;;;;;;4.78;3.20;;;;;;;;;;6241116;23;20019;-86
2023/09/07 11:26:52;;;;;;;2.75;2.40;;;;;;;;;;6241116;23;20016;-85
2023/09/07 11:29:21;;;;;;;3.53;2.45;;;;;;;;;;6213340;23;20019;-83
2023/09/07 11:31:47;;;;;;;3.25;2.95;;;;;;;;;;6240770;23;20009;-82
2023/09/07 11:34:13;;;;;;;3.80;2.70;;;;;;;;;;6212014;23;20016;-86
2023/09/07 11:36:43;;;;;;;3.42;2.75;;;;;;;;;;6241002;23;20008;-85
2023/09/07 11:39:12;;;;;;;3.63;2.95;;;;;;;;;;6211256;23;20020;-84
2023/09/07 11:41:42;;;;;;;3.00;2.70;;;;;;;;;;6211810;23;20016;-82
2023/09/07 11:44:08;;;;;;;2.95;2.47;;;;;;;;;;6210814;23;20035;-82
2023/09/07 11:46:34;;;;;;;3.47;2.70;;;;;;;;;;6239089;23;20015;-86
2023/09/07 11:49:00;;;;;;;3.35;2.65;;;;;;;;;;6239059;23;20091;-82
2023/09/07 11:51:26;;;;;;;4.10;2.88;;;;;;;;;;6240676;23;20100;-85
2023/09/07 11:53:52;;;;;;;3.35;3.05;;;;;;;;;;6189298;23;20018;-85
2023/09/07 11:56:18;;;;;;;3.85;2.78;;;;;;;;;;6242079;23;20539;-83
2023/09/07 11:58:44;;;;;;;3.17;2.88;;;;;;;;;;6215395;23;20016;-83
2023/09/07 12:01:10;;;;;;;3.40;2.65;;;;;;;;;;6240858;23;20016;-83
2023/09/07 12:03:36;;;;;;;3.30;3.00;;;;;;;;;;6243702;23;20091;-85
2023/09/07 12:06:02;;;;;;;4.80;2.80;;;;;;;;;;6215970;23;20095;-87
2023/09/07 12:08:28;;;;;;;5.78;2.95;;;;;;;;;;6242821;23;20023;-84
2023/09/07 12:10:55;;;;;;;3.15;2.85;;;;;;;;;;6214764;23;20016;-88
2023/09/07 12:13:20;;;;;;;2.45;2.25;;;;;;;;;;6242010;23;20028;-87
2023/09/07 12:15:47;;;;;;;4.75;2.58;;;;;;;;;;6215399;23;20452;-83
2023/09/07 12:18:13;;;;;;;3.08;2.50;;;;;;;;;;6241597;23;20012;-87
2023/09/07 12:20:40;;;;;;;3.83;2.30;;;;;;;;;;6243021;23;20012;-89
2023/09/07 12:23:06;;;;;;;4.63;3.08;;;;;;;;;;6241942;23;20070;-83
2023/09/07 12:25:32;;;;;;;3.72;2.47;;;;;;;;;;6215147;23;20020;-83
2023/09/07 12:27:58;;;;;;;4.38;2.67;;;;;;;;;;6241385;23;20008;-87
2023/09/07 12:30:24;;;;;;;3.88;2.78;;;;;;;;;;6214636;23;20044;-85
2023/09/07 12:32:50;;;;;;;2.90;2.70;;;;;;;;;;6214224;23;20019;-85
2023/09/07 12:35:16;;;;;;;3.67;2.40;;;;;;;;;;6214145;23;20043;-89
2023/09/07 12:37:42;;;;;;;4.10;2.80;;;;;;;;;;6215165;23;20020;-83
2023/09/07 12:40:11;;;;;;;4.93;2.50;;;;;;;;;;6214315;23;20024;-82
2023/09/07 12:42:38;;;;;;;3.28;2.63;;;;;;;;;;6242332;23;20086;-83
2023/09/07 12:45:04;;;;;;;3.85;2.70;;;;;;;;;;6241543;23;20016;-84
2023/09/07 12:47:30;;;;;;;3.17;2.47;;;;;;;;;;6214083;23;20048;-87
2023/09/07 12:49:57;;;;;;;3.63;2.50;;;;;;;;;;6241535;23;20011;-84
2023/09/07 12:52:22;;;;;;;4.00;2.80;;;;;;;;;;6241431;23;20016;-87
2023/09/07 12:54:49;;;;;;;2.88;2.65;;;;;;;;;;6242138;23;20446;-93
2023/09/07 12:57:15;;;;;;;6.50;3.05;;;;;;;;;;6214070;23;20024;-89
2023/09/07 12:59:41;;;;;;;3.33;3.03;;;;;;;;;;6242531;23;20106;-86
2023/09/07 13:02:08;;;;;;;3.80;2.83;;;;;;;;;;6242350;23;20016;-84
2023/09/07 13:04:34;;;;;;;4.03;3.03;;;;;;;;;;6242675;23;20017;-90
2023/09/07 13:07:01;;;;;;;4.75;3.13;;;;;;;;;;6242352;23;20148;-86
2023/09/07 13:09:27;;;;;;;4.20;3.33;;;;;;;;;;6242665;23;20337;-86
2023/09/07 13:11:53;;;;;;;3.03;2.83;;;;;;;;;;6241919;23;20043;-92
2023/09/07 13:14:19;;;;;;;3.58;3.03;;;;;;;;;;6241855;23;20453;-91
2023/09/07 13:16:45;;;;;;;3.38;3.13;;;;;;;;;;6216140;23;20022;-89
2023/09/07 13:19:11;;;;;;;3.13;2.83;;;;;;;;;;6214139;23;20043;-89
2023/09/07 13:21:37;;;;;;;3.70;2.70;;;;;;;;;;6188077;23;20016;-88
2023/09/07 13:24:04;;;;;;;3.47;2.95;;;;;;;;;;6241157;23;20009;-84
2023/09/07 13:26:30;;;;;;;4.47;2.60;;;;;;;;;;6241113;23;20016;-83
2023/09/07 13:28:56;;;;;;;3.25;2.85;;;;;;;;;;6241421;23;20012;-86
2023/09/07 13:31:22;;;;;;;3.85;2.78;;;;;;;;;;6242344;23;20027;-82
2023/09/07 13:33:50;;;;;;;3.20;2.65;;;;;;;;;;6241720;23;20023;-82
2023/09/07 13:36:17;;;;;;;4.47;3.08;;;;;;;;;;6241359;23;20013;-83
2023/09/07 13:38:43;;;;;;;3.70;2.83;;;;;;;;;;6213896;23;20024;-83
2023/09/07 13:41:09;;;;;;;3.53;2.80;;;;;;;;;;6213134;23;20022;-81
2023/09/07 13:43:35;;;;;;;4.28;3.20;;;;;;;;;;6214876;23;20011;-82
2023/09/07 13:46:01;;;;;;;5.15;2.95;;;;;;;;;;6214699;23;20087;-82
2023/09/07 13:48:27;;;;;;;2.50;2.30;;;;;;;;;;6241422;23;20016;-85
2023/09/07 13:50:53;;;;;;;3.05;2.75;;;;;;;;;;6215068;23;20016;-86
2023/09/07 13:53:20;;;;;;;3.05;2.72;;;;;;;;;;6213949;23;20023;-86
2023/09/07 13:55:46;;;;;;;5.30;3.28;;;;;;;;;;6208840;23;20020;-84
2023/09/07 13:58:12;;;;;;;2.53;2.33;;;;;;;;;;6208874;23;20084;-85
2023/09/07 14:00:38;;;;;;;3.58;2.67;;;;;;;;;;6212073;23;20013;-83
2023/09/07 14:03:04;;;;;;;2.95;2.65;;;;;;;;;;6210202;23;20334;-82
2023/09/07 14:05:30;;;;;;;3.05;2.70;;;;;;;;;;6211614;23;20020;-81
2023/09/07 14:07:59;;;;;;;3.88;2.85;;;;;;;;;;6210950;23;20029;-84
2023/09/07 14:10:25;;;;;;;3.35;2.55;;;;;;;;;;6212088;23;20068;-86
2023/09/07 14:12:51;;;;;;;2.88;2.65;;;;;;;;;;6210694;23;20016;-85
2023/09/07 14:15:17;;;;;;;3.13;2.50;;;;;;;;;;6210391;23;20444;-83
2023/09/07 14:17:43;;;;;;;2.85;2.58;;;;;;;;;;6211478;23;20020;-83
2023/09/07 14:20:10;;;;;;;5.78;3.28;;;;;;;;;;6211190;23;20362;-83
2023/09/07 14:22:36;;;;;;;4.07;2.95;;;;;;;;;;6211585;23;20016;-85
2023/09/07 14:25:02;;;;;;;3.58;2.90;;;;;;;;;;6208362;23;20023;-84
2023/09/07 14:27:28;;;;;;;4.03;2.60;;;;;;;;;;6211527;23;20020;-83
2023/09/07 14:29:54;;;;;;;3.08;2.50;;;;;;;;;;6210738;23;20023;-87
2023/09/07 14:32:20;;;;;;;2.80;2.50;;;;;;;;;;6211111;23;20019;-84
2023/09/07 14:34:46;;;;;;;2.55;2.30;;;;;;;;;;6211139;23;20012;-86
2023/09/07 14:37:12;;;;;;;2.92;2.60;;;;;;;;;;6209907;23;20016;-85
2023/09/07 14:39:38;;;;;;;4.13;2.70;;;;;;;;;;6210834;23;20046;-87
2023/09/07 14:42:11;;;;;;;3.33;2.65;;;;;;;;;;6183765;23;20092;-84